createdAt,value
2023-04-30T00:01:17.187Z,91.5614765870092
2023-04-30T00:04:17.481Z,91.61646900981121
2023-04-30T00:07:17.577Z,91.40131379580839
2023-04-30T00:11:16.775Z,91.74385606588305
2023-04-30T00:14:17.592Z,91.64149854011102
2023-04-30T00:17:17.310Z,91.95602766950707
2023-04-30T00:21:17.232Z,92.14108613372754
2023-04-30T00:24:17.464Z,92.20900105190388
2023-04-30T00:27:17.558Z,92.50079677351916
2023-04-30T00:31:16.525Z,92.22457602394006
2023-04-30T00:34:16.973Z,92.43052420210398
2023-04-30T00:37:16.805Z,92.38906295999169
2023-04-30T00:41:17.220Z,92.75840554957944
2023-04-30T00:44:17.123Z,92.62263210726796
2023-04-30T00:47:17.179Z,92.71677337514235
2023-04-30T00:51:16.602Z,92.58069948002509
2023-04-30T00:54:17.225Z,92.39946235389904
2023-04-30T00:57:16.881Z,91.96943299064358
2023-04-30T01:01:17.800Z,92.20247555515358
2023-04-30T01:04:17.703Z,92.2685940089766
2023-04-30T01:07:17.077Z,92.19440383969028
2023-04-30T01:11:28.640Z,92.2366230187661
2023-04-30T01:14:24.619Z,92.23594651410922
2023-04-30T01:17:27.472Z,92.18456122667018
2023-04-30T01:21:18.473Z,92.26854336403747
2023-04-30T01:24:36.853Z,92.22225098166263
2023-04-30T01:27:31.037Z,92.0311518550607
2023-04-30T01:31:19.027Z,91.95770213075795
2023-04-30T01:34:16.789Z,91.87485235715035
2023-04-30T01:37:25.792Z,91.48672891768429
2023-04-30T01:41:27.872Z,91.32241007823366
2023-04-30T01:44:28.709Z,91.28137557488978
2023-04-30T01:47:33.264Z,91.20945762769533
2023-04-30T01:51:27.886Z,91.0027787156697
2023-04-30T01:54:25.942Z,90.88807722698651
2023-04-30T01:57:20.650Z,91.09188271641133
2023-04-30T02:01:33.147Z,91.38269286671891
2023-04-30T02:04:16.857Z,91.44262441466263
2023-04-30T02:07:37.036Z,91.39425905846251
2023-04-30T02:11:16.833Z,91.22961418173814
2023-04-30T02:14:17.477Z,91.30277114888868
2023-04-30T02:17:17.148Z,91.41173717454397
2023-04-30T02:21:15.928Z,91.3973907893102
2023-04-30T02:24:16.366Z,91.11466837221036
2023-04-30T02:27:17.023Z,91.26130259105392
2023-04-30T02:31:16.423Z,91.14262034196125
2023-04-30T02:34:16.826Z,91.04158149339506
2023-04-30T02:37:17.185Z,91.44531022974188
2023-04-30T02:41:16.658Z,91.35729295871617
2023-04-30T02:44:17.381Z,91.1464123312937
2023-04-30T02:47:17.151Z,91.05809805859224
2023-04-30T02:51:16.405Z,91.21049373426521
2023-04-30T02:54:16.490Z,90.99037657956329
2023-04-30T02:57:16.482Z,91.1937471194711
2023-04-30T03:01:16.666Z,91.15148561289472
2023-04-30T03:04:16.494Z,90.93972254273356
2023-04-30T03:07:16.435Z,90.74623271185128
2023-04-30T03:11:16.123Z,90.67937942240462
2023-04-30T03:14:16.518Z,90.20089359178776
2023-04-30T03:17:16.975Z,90.02398034640046
2023-04-30T03:21:16.376Z,90.07721228623588
2023-04-30T03:24:16.619Z,90.49919216094644
2023-04-30T03:27:17.296Z,90.56480886121682
2023-04-30T03:31:16.432Z,90.88508522139264
2023-04-30T03:34:16.696Z,90.71607336908166
2023-04-30T03:37:16.658Z,90.93720435958426
2023-04-30T03:41:16.441Z,91.01205075538246
2023-04-30T03:44:16.820Z,91.1893450546812
2023-04-30T03:47:17.191Z,91.38452711022957
2023-04-30T03:51:16.960Z,91.4176470188606
2023-04-30T03:54:16.723Z,91.30918806970054
2023-04-30T03:57:16.658Z,91.43665491856389
2023-04-30T04:01:16.871Z,91.65369361705599
2023-04-30T04:04:17.329Z,91.75869971234256
2023-04-30T04:07:17.331Z,91.86222532699024
2023-04-30T04:11:16.898Z,91.77835515810897
2023-04-30T04:14:17.156Z,91.84533482710982
2023-04-30T04:17:17.375Z,91.82298418927076
2023-04-30T04:21:16.521Z,91.65579179016866
2023-04-30T04:24:16.633Z,91.51539009231074
2023-04-30T04:27:16.787Z,91.87129133810555
2023-04-30T04:31:17.076Z,91.69391607875458
2023-04-30T04:34:17.094Z,91.87061246831979
2023-04-30T04:37:18.488Z,91.92441939014438
2023-04-30T04:41:16.038Z,92.21440638202992
2023-04-30T04:44:16.442Z,92.35512448628116
2023-04-30T04:47:17.093Z,92.38321587101215
2023-04-30T04:51:16.614Z,92.8115879210517
2023-04-30T04:54:17.435Z,92.87486397347608
2023-04-30T04:57:16.812Z,93.59370201448083
2023-04-30T05:01:16.395Z,93.55861471178514
2023-04-30T05:04:16.939Z,93.637910823204
2023-04-30T05:07:17.032Z,94.21836260956412
2023-04-30T05:11:16.932Z,94.25164945144097
2023-04-30T05:14:16.664Z,94.25343194124461
2023-04-30T05:17:16.410Z,94.14285108202309
2023-04-30T05:21:16.559Z,94.39504085487285
2023-04-30T05:24:16.814Z,94.29992439555777
2023-04-30T05:27:17.133Z,94.61476545163727
2023-04-30T05:31:17.806Z,94.9842056421066
2023-04-30T05:34:16.848Z,95.62040722302399
2023-04-30T05:37:17.918Z,95.78358094865858
2023-04-30T05:41:22.188Z,95.81950833405557
2023-04-30T05:44:22.553Z,96.20153991088164
2023-04-30T05:47:22.374Z,96.37410375015398
2023-04-30T05:51:16.686Z,96.93612848127984
2023-04-30T05:54:17.875Z,97.10979501328481
2023-04-30T05:57:16.761Z,98.06833002268742
2023-04-30T06:01:16.557Z,99.0360704105909
2023-04-30T06:04:17.762Z,99.3116223797458
2023-04-30T06:07:16.947Z,99.76770551002527
2023-04-30T06:11:16.634Z,100
2023-04-30T06:14:17.675Z,100
2023-04-30T06:17:16.996Z,100
2023-04-30T06:21:16.274Z,100
2023-04-30T06:24:16.710Z,100
2023-04-30T06:27:16.571Z,100
2023-04-30T06:31:16.332Z,100
2023-04-30T06:34:16.413Z,100
2023-04-30T06:37:16.619Z,100
2023-04-30T06:41:17.246Z,100
2023-04-30T06:44:17.631Z,100
2023-04-30T06:47:17.180Z,100
2023-04-30T06:51:16.755Z,100
2023-04-30T06:54:16.976Z,100
2023-04-30T06:57:16.992Z,100
2023-04-30T07:01:17.065Z,100
2023-04-30T07:04:17.118Z,100
2023-04-30T07:07:16.958Z,100
2023-04-30T07:11:17.582Z,99.60677400218472
2023-04-30T07:14:17.396Z,99.09560017096344
2023-04-30T07:17:17.355Z,98.8788871120178
2023-04-30T07:21:16.992Z,98.55670987341261
2023-04-30T07:24:16.895Z,97.8502147531919
2023-04-30T07:27:17.166Z,97.65716827283836
2023-04-30T07:31:16.106Z,97.56273562506581
2023-04-30T07:34:16.594Z,97.69384069034759
2023-04-30T07:37:16.416Z,97.39107551212068
2023-04-30T07:41:16.908Z,96.72494170809578
2023-04-30T07:44:18.484Z,97.01876595549362
2023-04-30T07:47:17.918Z,96.25784595824048
2023-04-30T07:51:16.743Z,95.84527029486539
2023-04-30T07:54:17.250Z,95.33158746944618
2023-04-30T07:57:17.453Z,94.98688114452898
2023-04-30T08:01:16.675Z,94.22571293958387
2023-04-30T08:04:17.037Z,93.91433160030054
2023-04-30T08:07:17.094Z,93.4088040167184
2023-04-30T08:11:16.635Z,92.8898329688368
2023-04-30T08:14:16.656Z,92.61199766207126
2023-04-30T08:17:16.709Z,92.48202752141208
2023-04-30T08:21:16.482Z,91.80733250820323
2023-04-30T08:24:17.028Z,90.91143299292486
2023-04-30T08:27:17.070Z,89.42024298534838
2023-04-30T08:31:17.358Z,88.88542583188813
2023-04-30T08:34:17.335Z,88.63044452201852
2023-04-30T08:37:17.129Z,89.28379914137044
2023-04-30T08:41:16.707Z,88.31600872278231
2023-04-30T08:44:18.426Z,87.08450845325972
2023-04-30T08:47:16.976Z,86.31087427422256
2023-04-30T08:51:16.718Z,86.21466571476644
2023-04-30T08:54:18.144Z,86.72577638441848
2023-04-30T08:57:17.742Z,86.95929891013789
2023-04-30T09:01:16.884Z,86.87133133377051
2023-04-30T09:04:17.012Z,85.716914472724
2023-04-30T09:07:19.571Z,85.6203414167159
2023-04-30T09:11:25.398Z,85.52697222333339
2023-04-30T09:14:24.161Z,85.59451270834053
2023-04-30T09:17:21.390Z,85.39115517060334
2023-04-30T09:21:28.626Z,85.3627702723078
2023-04-30T09:24:18.707Z,85.28007784566289
2023-04-30T09:27:18.616Z,84.8593075966537
2023-04-30T09:31:20.056Z,84.76554355297978
2023-04-30T09:34:17.290Z,84.703696760447
2023-04-30T09:37:17.417Z,83.92579316044677
2023-04-30T09:41:23.672Z,83.90636155984413
2023-04-30T09:44:36.597Z,83.67933299991458
2023-04-30T09:47:18.279Z,82.98646887229405
2023-04-30T09:51:17.039Z,83.13793216621885
2023-04-30T09:54:18.809Z,82.47570942946975
2023-04-30T09:57:22.182Z,82.954312008413
2023-04-30T10:01:18.508Z,82.9103560663998
2023-04-30T10:04:20.030Z,83.20111682977318
2023-04-30T10:11:20.980Z,81.96140830555083
2023-04-30T10:14:19.115Z,81.90467117267245
2023-04-30T10:17:17.239Z,81.2519049871942
2023-04-30T10:21:19.755Z,81.54032091929103
2023-04-30T10:24:20.562Z,81.82743361114447
2023-04-30T10:27:17.260Z,80.872893587272
2023-04-30T10:31:17.356Z,81.09555160468989
2023-04-30T10:34:29.055Z,80.46120095104868
2023-04-30T10:37:38.853Z,79.95870915707305
2023-04-30T10:41:19.786Z,78.96551189272452
2023-04-30T10:44:21.688Z,79.10324195875498
2023-04-30T10:47:17.439Z,78.69570085850593
2023-04-30T10:51:17.340Z,78.87968476778072
2023-04-30T10:54:25.107Z,78.433459271206
2023-04-30T10:57:20.821Z,78.4705251122536
2023-04-30T11:01:18.004Z,78.0651953555862
2023-04-30T11:04:17.266Z,77.51446921526436
2023-04-30T11:07:17.210Z,77.24324157497793
2023-04-30T11:11:18.714Z,77.35442583331968
2023-04-30T11:14:20.677Z,77.48511493027826
2023-04-30T11:17:22.792Z,78.05092864407122
2023-04-30T11:21:20.157Z,77.41691082273894
2023-04-30T11:24:19.448Z,77.48344410837386
2023-04-30T11:27:20.263Z,77.61297396545974
2023-04-30T11:31:17.307Z,78.03523925895635
2023-04-30T11:34:19.178Z,78.43417210170021
2023-04-30T11:37:19.654Z,78.90668800759401
2023-04-30T11:41:16.557Z,79.38025861915047
2023-04-30T11:44:22.634Z,79.29556946497335
2023-04-30T11:47:16.671Z,79.33499669984194
2023-04-30T11:51:17.673Z,79.84720769990962
2023-04-30T11:54:16.660Z,80.14946858550337
2023-04-30T11:57:17.023Z,80.27496283886303
2023-04-30T12:01:18.223Z,80.00495601489656
2023-04-30T12:04:17.485Z,79.53371760720358
2023-04-30T12:07:17.250Z,78.57638567955824
2023-04-30T12:11:20.534Z,77.49981060171382
2023-04-30T12:14:16.469Z,77.58392456492726
2023-04-30T12:17:30.372Z,77.88033716124599
2023-04-30T12:21:17.074Z,77.16459088348499
2023-04-30T12:24:18.692Z,77.20354312645367
2023-04-30T12:27:16.914Z,77.09313805588945
2023-04-30T12:31:17.464Z,77.33941609917403
2023-04-30T12:34:17.473Z,77.28119066273089
2023-04-30T12:37:17.000Z,77.1014310577908
2023-04-30T12:41:17.811Z,77.50668226547585
2023-04-30T12:44:18.312Z,77.68831946287425
2023-04-30T12:47:17.955Z,78.01622827650651
2023-04-30T12:51:19.337Z,77.81631080787886
2023-04-30T12:54:25.758Z,77.92832868324678
2023-04-30T12:57:16.979Z,78.17486391569864
2023-04-30T13:01:19.295Z,78.55213270081775
2023-04-30T13:04:17.728Z,78.60668324773714
2023-04-30T13:07:16.780Z,78.93751590214418
2023-04-30T13:11:17.163Z,80.10098216981024
2023-04-30T13:14:18.207Z,80.70417097310947
2023-04-30T13:17:18.088Z,81.41255291507619
2023-04-30T13:21:16.625Z,81.45690485841533
2023-04-30T13:24:18.240Z,81.89632559913161
2023-04-30T13:27:17.078Z,82.5163380161505
2023-04-30T13:31:17.628Z,83.64625782838205
2023-04-30T13:34:17.734Z,84.09102227160837
2023-04-30T13:37:18.089Z,84.5904556626398
2023-04-30T13:41:16.752Z,85.0785469515881
2023-04-30T13:44:17.586Z,85.61385133352098
2023-04-30T13:47:16.954Z,86.05224763998741
2023-04-30T13:51:16.543Z,86.70232125100324
2023-04-30T13:54:17.114Z,87.14027610294231
2023-04-30T13:57:17.012Z,87.47784733545426
2023-04-30T14:01:16.741Z,88.68495884725003
2023-04-30T14:04:17.037Z,89.15173221513405
2023-04-30T14:07:17.245Z,90.06994759441905
2023-04-30T14:11:16.445Z,90.50040523667239
2023-04-30T14:14:16.643Z,90.90888025461011
2023-04-30T14:17:16.685Z,91.45974444469192
2023-04-30T14:21:17.106Z,91.68386646073863
2023-04-30T14:24:18.370Z,91.82943475804055
2023-04-30T14:27:17.453Z,91.80199427159563
2023-04-30T14:31:16.984Z,92.04926699163332
2023-04-30T14:34:17.937Z,91.93460292417167
2023-04-30T14:37:17.728Z,92.15577143596727
2023-04-30T14:41:17.083Z,92.67330378458561
2023-04-30T14:44:17.653Z,93.0267777060604
2023-04-30T14:47:17.495Z,93.20915810046407
2023-04-30T14:51:16.663Z,93.75359458999269
2023-04-30T14:54:17.544Z,93.88420788238966
2023-04-30T14:57:17.307Z,93.94185807403439
2023-04-30T15:01:16.953Z,94.44780931123573
2023-04-30T15:04:17.041Z,94.62959707695401
2023-04-30T15:07:17.092Z,94.59819116934548
2023-04-30T15:11:17.151Z,94.57460558070586
2023-04-30T15:14:17.624Z,94.92018670990785
2023-04-30T15:17:17.249Z,95.46855267361856
2023-04-30T15:21:16.156Z,95.84221192070791
2023-04-30T15:24:18.294Z,95.95870341309508
2023-04-30T15:27:16.556Z,96.08835846134726
2023-04-30T15:31:16.891Z,96.28121994269226
2023-04-30T15:34:16.921Z,95.94559790348647
2023-04-30T15:37:16.623Z,95.63868762091684
2023-04-30T15:41:17.479Z,96.21508778578514
2023-04-30T15:44:17.517Z,95.9687057629986
2023-04-30T15:47:17.637Z,95.9647936668309
2023-04-30T15:51:16.944Z,96.29364648919739
2023-04-30T15:54:18.307Z,96.23188972098359
2023-04-30T15:57:17.486Z,96.34491540961854
2023-04-30T16:01:16.551Z,97.45014853435808
2023-04-30T16:04:16.982Z,97.6127524552863
2023-04-30T16:07:17.125Z,97.99133932655648
2023-04-30T16:11:17.086Z,98.49487643272424
2023-04-30T16:14:17.551Z,98.10727663978153
2023-04-30T16:17:17.280Z,98.63074660887644
2023-04-30T16:31:17.296Z,100
2023-04-30T16:34:16.393Z,100
2023-04-30T16:37:16.325Z,99.45323465111744
2023-04-30T16:41:17.148Z,100
2023-04-30T16:44:16.657Z,100
2023-04-30T16:47:18.691Z,100
2023-04-30T16:51:16.524Z,100
2023-04-30T16:54:16.850Z,100
2023-04-30T16:57:16.903Z,100
2023-04-30T17:01:16.159Z,100
2023-04-30T17:07:17.442Z,100
2023-04-30T17:11:20.574Z,100
2023-04-30T17:14:17.136Z,100
2023-04-30T17:17:17.146Z,100
2023-04-30T17:21:16.560Z,100
2023-04-30T17:24:16.885Z,100
2023-04-30T17:27:17.245Z,100
2023-04-30T17:31:16.106Z,100
2023-04-30T17:34:16.309Z,100
2023-04-30T17:37:16.295Z,100
2023-04-30T17:41:18.651Z,100
2023-04-30T17:44:17.153Z,100
2023-04-30T17:47:17.104Z,100
2023-04-30T17:51:15.917Z,100
2023-04-30T17:54:16.594Z,100
2023-04-30T17:57:16.134Z,100
2023-04-30T18:01:15.836Z,100
2023-04-30T18:04:18.159Z,100
2023-04-30T18:07:16.647Z,100
2023-04-30T18:11:16.300Z,100
2023-04-30T18:14:16.831Z,100
2023-04-30T18:17:17.000Z,100
2023-04-30T18:21:17.526Z,100
2023-04-30T18:24:16.736Z,100
2023-04-30T18:27:16.696Z,100
2023-04-30T18:31:15.989Z,100
2023-04-30T18:34:16.423Z,100
2023-04-30T18:37:17.814Z,100
2023-04-30T18:41:15.775Z,100
2023-04-30T18:44:16.501Z,100
2023-04-30T18:47:16.432Z,100
2023-04-30T19:01:17.912Z,100
2023-04-30T19:04:17.066Z,100
2023-04-30T19:07:17.432Z,100
2023-04-30T19:11:16.474Z,100
2023-04-30T19:14:16.815Z,100
2023-04-30T19:17:20.187Z,100
2023-04-30T19:21:16.716Z,100
2023-04-30T19:24:17.210Z,100
2023-04-30T19:27:17.539Z,100
2023-04-30T19:31:16.247Z,100
2023-04-30T19:34:16.453Z,100
2023-04-30T19:37:16.303Z,100
2023-04-30T19:41:16.508Z,100
2023-04-30T19:44:19.166Z,100
2023-04-30T19:47:18.790Z,100
2023-04-30T19:51:16.993Z,100
2023-04-30T19:54:18.036Z,100
2023-04-30T19:57:17.360Z,100
2023-04-30T20:01:16.328Z,100
2023-04-30T20:04:18.271Z,100
2023-04-30T20:07:17.570Z,100
2023-04-30T20:11:21.879Z,100
2023-04-30T20:14:17.680Z,100
2023-04-30T20:17:16.758Z,100
2023-04-30T20:21:23.542Z,100
2023-04-30T20:24:23.698Z,100
2023-04-30T20:27:22.588Z,100
2023-04-30T20:31:16.507Z,100
2023-04-30T20:34:17.001Z,100
2023-04-30T20:37:16.824Z,100
2023-04-30T20:41:15.477Z,100
2023-04-30T20:44:15.858Z,100
2023-04-30T20:47:15.866Z,100
2023-04-30T20:51:16.465Z,100
2023-04-30T20:54:17.659Z,100
2023-04-30T20:57:17.232Z,100
2023-04-30T21:01:16.443Z,100
2023-04-30T21:04:16.829Z,100
2023-04-30T21:07:17.300Z,100
2023-04-30T21:11:16.111Z,100
2023-04-30T21:14:16.516Z,100
2023-04-30T21:17:16.665Z,100
2023-04-30T21:21:17.019Z,100
2023-04-30T21:24:16.896Z,100
2023-04-30T21:27:16.920Z,100
2023-04-30T21:31:16.696Z,100
2023-04-30T21:34:16.889Z,100
2023-04-30T21:37:17.654Z,100
2023-04-30T21:41:16.775Z,100
2023-04-30T21:44:16.212Z,100
2023-04-30T21:47:16.549Z,100
2023-04-30T21:51:17.206Z,100
2023-04-30T21:54:19.177Z,100
2023-04-30T21:57:16.405Z,100
2023-04-30T22:01:16.564Z,100
2023-04-30T22:04:16.880Z,100
2023-04-30T22:07:17.096Z,100
2023-04-30T22:11:16.512Z,100
2023-04-30T22:14:17.141Z,100
2023-04-30T22:17:16.767Z,100
2023-04-30T22:21:15.694Z,100
2023-04-30T22:24:16.223Z,100
2023-04-30T22:27:16.262Z,100
2023-04-30T22:31:16.209Z,100
2023-04-30T22:34:19.259Z,100
2023-04-30T22:37:16.905Z,100
2023-04-30T22:41:15.930Z,100
2023-04-30T22:44:16.998Z,100
2023-04-30T22:47:16.685Z,100
2023-04-30T22:51:17.633Z,100
2023-04-30T22:54:17.753Z,100
2023-04-30T22:57:17.353Z,100
2023-04-30T23:01:15.706Z,100
2023-04-30T23:04:16.247Z,100
2023-04-30T23:07:16.128Z,100
2023-04-30T23:11:16.179Z,100
2023-04-30T23:14:16.467Z,100
2023-04-30T23:17:16.372Z,100
2023-04-30T23:21:15.795Z,100
2023-04-30T23:24:15.962Z,100
2023-04-30T23:27:17.332Z,100
2023-04-30T23:31:18.001Z,100
2023-04-30T23:34:16.753Z,100
2023-04-30T23:37:16.946Z,100
2023-04-30T23:41:16.575Z,100
2023-04-30T23:44:16.835Z,100
2023-04-30T23:47:17.056Z,100
2023-04-30T23:51:16.374Z,100
2023-04-30T23:54:16.924Z,100
2023-04-30T23:57:17.286Z,100
